首页
METAR-TAF:

METAR-TAF

机场 :

Beckley, 西維吉尼亞州, 美国

纬度: 37-47-42N, 经度: 081-07-29W, 海拔: 763米

当前天气观测

该预报发布于25分钟前的11:51 UTC
风速4节,风向北转西北
温度 -2°C
湿度 80%
气压 1021 hPa
能見度: 16.1公里
多云层高于1300英尺

METAR: KBKW 181151Z AUTO 34004KT 10SM BKN013 M02/M05 A3014 RMK AO2 SLP229 T10221050 10000 21022 53017

时间: 07:16 (12:16 UTC)

预报

该预报发布于44分钟前的11:32 UTC
预报有效从18日的 12点(UTC)到 19日的 12点(UTC)
风速4节,风向
能見度: 10公里
阴天层高于1200英尺
短暂存在
从 18日的 12点(UTC)到 18日的 14点(UTC)
散云层高于2000英尺
从 18日的 1400点(UTC)
风速3节,风向多变
能見度: 10公里
散云层高于4000英尺
从 19日的 0000点(UTC)
风速节,风向
能見度: 10公里
散云层高于25000英尺
从 19日的 0500点(UTC)
风速4节,风向南转南东
能見度: 10公里
散云层高于19000英尺

TAF: KBKW 181132Z 1812/1912 35004KT P6SM OVC012 TEMPO 1812/1814 SCT020 FM181400 VRB03KT P6SM SCT040 FM190000 00000KT P6SM SCT250 FM190500 15004KT P6SM SCT190

超过4000个机场的气象观测和天气预报(METAR&TAF报告)。

可查询的气象台以黄色和红色小点在地图上表示。

将鼠标移到小点上方,可查看气象台名称。

然后点击查看天气观测和预报。

如需切换地图:点击带黑十字的绿色按钮放大地图;点击带横线的绿色按钮缩小地图;或者点击绿色箭头查看邻近地区的地图。


METAR-TAF: